ADDS METAR Data INFO
IDs: Format: Raw Decoded Include TAF

Data at: 0954 UTC 23 Apr 2017

KPNS 230853Z AUTO 20003KT 10SM FEW050 FEW075 BKN110 21/18 A2981 RMK AO2 LTG DSNT SE-SW RAB0756E47 SLP097 P0001 60001 T02060183 56029

KPNS 230526Z 2306/2406 23004KT P6SM VCTS SCT030CB BKN070
  TEMPO 2306/2307 VRB15KT 2SM -TSRA OVC010CB
  FM230900 33008KT P6SM OVC005
  FM231500 33009KT P6SM FEW005 BKN015
  FM231800 33012KT P6SM SCT250



Page loaded:  09:54 UTC  |   02:54 AM Pacific  |   03:54 AM Mountain  |   04:54 AM Central  |   05:54 AM Eastern

 

ADVISORIES

FORECASTS

FORECASTS

OBSERVATIONS

USER TOOLS

ABOUT US